sensor_id;sensor_type;location;lat;lon;timestamp;P1;durP1;ratioP1;P2;durP2;ratioP2
66667;SDS011;57205;51.438;-2.006;2023-11-21T00:00:50;1.17;;;0.70;;
66667;SDS011;57205;51.438;-2.006;2023-11-21T00:03:16;1.60;;;0.68;;
66667;SDS011;57205;51.438;-2.006;2023-11-21T00:05:42;2.03;;;0.68;;
66667;SDS011;57205;51.438;-2.006;2023-11-21T00:08:08;3.10;;;0.75;;
66667;SDS011;57205;51.438;-2.006;2023-11-21T00:10:34;2.30;;;0.80;;
66667;SDS011;57205;51.438;-2.006;2023-11-21T00:13:00;1.17;;;0.65;;
66667;SDS011;57205;51.438;-2.006;2023-11-21T00:15:27;2.55;;;0.80;;
66667;SDS011;57205;51.438;-2.006;2023-11-21T00:17:53;1.48;;;0.82;;
66667;SDS011;57205;51.438;-2.006;2023-11-21T00:20:18;3.45;;;0.90;;
66667;SDS011;57205;51.438;-2.006;2023-11-21T00:22:44;5.82;;;1.15;;
66667;SDS011;57205;51.438;-2.006;2023-11-21T00:25:09;1.88;;;0.98;;
66667;SDS011;57205;51.438;-2.006;2023-11-21T00:27:35;2.63;;;0.90;;
66667;SDS011;57205;51.438;-2.006;2023-11-21T00:30:01;2.97;;;0.70;;
66667;SDS011;57205;51.438;-2.006;2023-11-21T00:32:29;3.60;;;0.88;;
66667;SDS011;57205;51.438;-2.006;2023-11-21T00:34:55;4.20;;;1.05;;
66667;SDS011;57205;51.438;-2.006;2023-11-21T00:37:20;3.92;;;0.98;;
66667;SDS011;57205;51.438;-2.006;2023-11-21T00:39:46;1.80;;;0.85;;
66667;SDS011;57205;51.438;-2.006;2023-11-21T00:42:11;2.00;;;0.90;;
66667;SDS011;57205;51.438;-2.006;2023-11-21T00:44:40;4.28;;;1.20;;
66667;SDS011;57205;51.438;-2.006;2023-11-21T00:47:05;1.92;;;0.93;;
66667;SDS011;57205;51.438;-2.006;2023-11-21T00:49:31;2.25;;;1.10;;
66667;SDS011;57205;51.438;-2.006;2023-11-21T00:51:57;2.50;;;0.80;;
66667;SDS011;57205;51.438;-2.006;2023-11-21T00:54:23;1.38;;;0.60;;
66667;SDS011;57205;51.438;-2.006;2023-11-21T00:56:48;3.00;;;0.95;;
66667;SDS011;57205;51.438;-2.006;2023-11-21T00:59:14;1.15;;;0.73;;
66667;SDS011;57205;51.438;-2.006;2023-11-21T01:01:39;0.85;;;0.68;;
66667;SDS011;57205;51.438;-2.006;2023-11-21T01:04:05;1.75;;;0.85;;
66667;SDS011;57205;51.438;-2.006;2023-11-21T01:06:32;3.63;;;1.13;;
66667;SDS011;57205;51.438;-2.006;2023-11-21T01:08:58;5.47;;;0.95;;
66667;SDS011;57205;51.438;-2.006;2023-11-21T01:11:23;1.80;;;0.80;;
66667;SDS011;57205;51.438;-2.006;2023-11-21T01:13:49;2.08;;;1.05;;
66667;SDS011;57205;51.438;-2.006;2023-11-21T01:16:14;3.17;;;1.08;;
66667;SDS011;57205;51.438;-2.006;2023-11-21T01:18:40;1.73;;;1.00;;
66667;SDS011;57205;51.438;-2.006;2023-11-21T01:21:05;1.67;;;0.95;;
66667;SDS011;57205;51.438;-2.006;2023-11-21T01:23:32;1.45;;;0.77;;
66667;SDS011;57205;51.438;-2.006;2023-11-21T01:25:58;3.10;;;1.02;;
66667;SDS011;57205;51.438;-2.006;2023-11-21T01:28:23;3.70;;;1.13;;
66667;SDS011;57205;51.438;-2.006;2023-11-21T01:30:49;3.17;;;1.10;;
66667;SDS011;57205;51.438;-2.006;2023-11-21T01:33:14;2.55;;;1.17;;
66667;SDS011;57205;51.438;-2.006;2023-11-21T01:35:41;3.97;;;0.90;;
66667;SDS011;57205;51.438;-2.006;2023-11-21T01:38:07;2.85;;;1.08;;
66667;SDS011;57205;51.438;-2.006;2023-11-21T01:40:33;3.92;;;1.10;;
66667;SDS011;57205;51.438;-2.006;2023-11-21T01:43:00;3.20;;;1.33;;
66667;SDS011;57205;51.438;-2.006;2023-11-21T01:45:28;5.53;;;1.10;;
66667;SDS011;57205;51.438;-2.006;2023-11-21T01:47:56;2.15;;;1.00;;
66667;SDS011;57205;51.438;-2.006;2023-11-21T01:50:21;3.67;;;1.38;;
66667;SDS011;57205;51.438;-2.006;2023-11-21T01:52:47;3.15;;;1.27;;
66667;SDS011;57205;51.438;-2.006;2023-11-21T01:55:14;2.63;;;1.35;;
66667;SDS011;57205;51.438;-2.006;2023-11-21T01:57:43;3.65;;;1.38;;
66667;SDS011;57205;51.438;-2.006;2023-11-21T02:00:09;4.47;;;1.27;;
66667;SDS011;57205;51.438;-2.006;2023-11-21T02:02:47;3.47;;;1.92;;
66667;SDS011;57205;51.438;-2.006;2023-11-21T02:05:14;3.72;;;1.58;;
66667;SDS011;57205;51.438;-2.006;2023-11-21T02:07:43;3.47;;;1.33;;
66667;SDS011;57205;51.438;-2.006;2023-11-21T02:10:09;4.35;;;1.60;;
66667;SDS011;57205;51.438;-2.006;2023-11-21T02:12:35;3.97;;;1.83;;
66667;SDS011;57205;51.438;-2.006;2023-11-21T02:15:04;2.78;;;1.20;;
66667;SDS011;57205;51.438;-2.006;2023-11-21T02:17:35;1.88;;;1.00;;
66667;SDS011;57205;51.438;-2.006;2023-11-21T02:20:00;3.10;;;1.20;;
66667;SDS011;57205;51.438;-2.006;2023-11-21T02:22:30;4.85;;;1.40;;
66667;SDS011;57205;51.438;-2.006;2023-11-21T02:24:57;4.22;;;2.08;;
66667;SDS011;57205;51.438;-2.006;2023-11-21T02:27:23;2.08;;;1.20;;
66667;SDS011;57205;51.438;-2.006;2023-11-21T02:29:49;2.67;;;1.20;;
66667;SDS011;57205;51.438;-2.006;2023-11-21T02:32:16;3.45;;;1.20;;
66667;SDS011;57205;51.438;-2.006;2023-11-21T02:34:44;1.55;;;0.90;;
66667;SDS011;57205;51.438;-2.006;2023-11-21T02:37:09;3.05;;;1.15;;
66667;SDS011;57205;51.438;-2.006;2023-11-21T02:39:35;2.55;;;1.30;;
66667;SDS011;57205;51.438;-2.006;2023-11-21T02:42:00;4.03;;;2.13;;
66667;SDS011;57205;51.438;-2.006;2023-11-21T02:44:26;4.03;;;1.55;;
66667;SDS011;57205;51.438;-2.006;2023-11-21T02:46:51;5.38;;;2.30;;
66667;SDS011;57205;51.438;-2.006;2023-11-21T02:49:17;4.05;;;2.50;;
66667;SDS011;57205;51.438;-2.006;2023-11-21T02:51:43;4.45;;;2.05;;
66667;SDS011;57205;51.438;-2.006;2023-11-21T02:54:08;4.80;;;2.10;;
66667;SDS011;57205;51.438;-2.006;2023-11-21T02:56:34;6.80;;;2.35;;
66667;SDS011;57205;51.438;-2.006;2023-11-21T02:58:59;4.47;;;2.45;;
66667;SDS011;57205;51.438;-2.006;2023-11-21T03:01:25;6.03;;;2.75;;
66667;SDS011;57205;51.438;-2.006;2023-11-21T03:03:51;4.05;;;1.92;;
66667;SDS011;57205;51.438;-2.006;2023-11-21T03:06:20;4.05;;;2.22;;
66667;SDS011;57205;51.438;-2.006;2023-11-21T03:08:46;4.18;;;2.53;;
66667;SDS011;57205;51.438;-2.006;2023-11-21T03:11:12;4.32;;;2.65;;
66667;SDS011;57205;51.438;-2.006;2023-11-21T03:13:41;5.70;;;2.95;;
66667;SDS011;57205;51.438;-2.006;2023-11-21T03:16:10;4.80;;;3.08;;
66667;SDS011;57205;51.438;-2.006;2023-11-21T03:18:36;4.93;;;3.20;;
66667;SDS011;57205;51.438;-2.006;2023-11-21T03:21:03;5.82;;;4.05;;
66667;SDS011;57205;51.438;-2.006;2023-11-21T03:23:35;5.93;;;3.53;;
66667;SDS011;57205;51.438;-2.006;2023-11-21T03:26:01;7.18;;;4.30;;
66667;SDS011;57205;51.438;-2.006;2023-11-21T03:28:27;6.05;;;4.00;;
66667;SDS011;57205;51.438;-2.006;2023-11-21T03:30:53;9.15;;;4.55;;
66667;SDS011;57205;51.438;-2.006;2023-11-21T03:33:19;7.22;;;4.90;;
66667;SDS011;57205;51.438;-2.006;2023-11-21T03:35:45;6.75;;;4.95;;
66667;SDS011;57205;51.438;-2.006;2023-11-21T03:38:11;7.40;;;4.43;;
66667;SDS011;57205;51.438;-2.006;2023-11-21T03:40:38;8.63;;;5.00;;
66667;SDS011;57205;51.438;-2.006;2023-11-21T03:43:07;7.32;;;4.65;;
66667;SDS011;57205;51.438;-2.006;2023-11-21T03:45:32;6.30;;;4.85;;
66667;SDS011;57205;51.438;-2.006;2023-11-21T03:47:58;7.65;;;4.82;;
66667;SDS011;57205;51.438;-2.006;2023-11-21T03:50:26;6.20;;;4.30;;
66667;SDS011;57205;51.438;-2.006;2023-11-21T03:52:52;6.63;;;4.65;;
66667;SDS011;57205;51.438;-2.006;2023-11-21T03:55:18;7.13;;;4.63;;
66667;SDS011;57205;51.438;-2.006;2023-11-21T03:57:43;7.32;;;5.20;;
66667;SDS011;57205;51.438;-2.006;2023-11-21T04:00:09;6.97;;;4.50;;
66667;SDS011;57205;51.438;-2.006;2023-11-21T04:02:35;7.13;;;5.18;;
66667;SDS011;57205;51.438;-2.006;2023-11-21T04:05:00;10.13;;;5.63;;
66667;SDS011;57205;51.438;-2.006;2023-11-21T04:07:26;7.07;;;4.18;;
66667;SDS011;57205;51.438;-2.006;2023-11-21T04:09:52;8.82;;;5.00;;
66667;SDS011;57205;51.438;-2.006;2023-11-21T04:12:18;7.38;;;4.50;;
66667;SDS011;57205;51.438;-2.006;2023-11-21T04:14:44;8.32;;;4.50;;
66667;SDS011;57205;51.438;-2.006;2023-11-21T04:17:09;6.50;;;4.53;;
66667;SDS011;57205;51.438;-2.006;2023-11-21T04:19:35;6.53;;;4.53;;
66667;SDS011;57205;51.438;-2.006;2023-11-21T04:22:00;5.70;;;3.97;;
66667;SDS011;57205;51.438;-2.006;2023-11-21T04:24:26;7.57;;;4.15;;
66667;SDS011;57205;51.438;-2.006;2023-11-21T04:26:52;6.63;;;4.15;;
66667;SDS011;57205;51.438;-2.006;2023-11-21T04:29:18;6.03;;;4.20;;
66667;SDS011;57205;51.438;-2.006;2023-11-21T04:31:43;5.28;;;4.15;;
66667;SDS011;57205;51.438;-2.006;2023-11-21T04:34:09;8.13;;;4.63;;
66667;SDS011;57205;51.438;-2.006;2023-11-21T04:36:34;6.03;;;4.30;;
66667;SDS011;57205;51.438;-2.006;2023-11-21T04:39:00;9.45;;;5.03;;
66667;SDS011;57205;51.438;-2.006;2023-11-21T04:41:26;7.20;;;4.85;;
66667;SDS011;57205;51.438;-2.006;2023-11-21T04:43:51;5.78;;;4.25;;
66667;SDS011;57205;51.438;-2.006;2023-11-21T04:46:17;5.25;;;3.63;;
66667;SDS011;57205;51.438;-2.006;2023-11-21T04:48:42;7.15;;;4.47;;
66667;SDS011;57205;51.438;-2.006;2023-11-21T04:51:08;6.82;;;4.13;;
66667;SDS011;57205;51.438;-2.006;2023-11-21T04:53:33;5.28;;;3.50;;
66667;SDS011;57205;51.438;-2.006;2023-11-21T04:56:00;6.35;;;3.92;;
66667;SDS011;57205;51.438;-2.006;2023-11-21T04:58:25;6.65;;;4.57;;
66667;SDS011;57205;51.438;-2.006;2023-11-21T05:00:51;5.95;;;3.92;;
66667;SDS011;57205;51.438;-2.006;2023-11-21T05:03:16;6.50;;;3.83;;
66667;SDS011;57205;51.438;-2.006;2023-11-21T05:05:41;5.72;;;3.88;;
66667;SDS011;57205;51.438;-2.006;2023-11-21T05:08:07;4.43;;;2.80;;
66667;SDS011;57205;51.438;-2.006;2023-11-21T05:10:33;6.03;;;3.50;;
66667;SDS011;57205;51.438;-2.006;2023-11-21T05:12:59;8.02;;;4.07;;
66667;SDS011;57205;51.438;-2.006;2023-11-21T05:15:24;3.13;;;2.10;;
66667;SDS011;57205;51.438;-2.006;2023-11-21T05:17:50;6.05;;;2.50;;
66667;SDS011;57205;51.438;-2.006;2023-11-21T05:20:17;3.55;;;2.10;;
66667;SDS011;57205;51.438;-2.006;2023-11-21T05:22:45;3.53;;;2.00;;
66667;SDS011;57205;51.438;-2.006;2023-11-21T05:25:11;4.47;;;1.75;;
66667;SDS011;57205;51.438;-2.006;2023-11-21T05:27:37;3.28;;;1.17;;
66667;SDS011;57205;51.438;-2.006;2023-11-21T05:30:03;2.97;;;1.10;;
66667;SDS011;57205;51.438;-2.006;2023-11-21T05:32:36;3.67;;;1.42;;
66667;SDS011;57205;51.438;-2.006;2023-11-21T05:35:02;2.20;;;1.20;;
66667;SDS011;57205;51.438;-2.006;2023-11-21T05:37:28;3.50;;;0.93;;
66667;SDS011;57205;51.438;-2.006;2023-11-21T05:39:53;2.63;;;1.38;;
66667;SDS011;57205;51.438;-2.006;2023-11-21T05:42:22;1.70;;;1.10;;
66667;SDS011;57205;51.438;-2.006;2023-11-21T05:44:48;2.55;;;1.00;;
66667;SDS011;57205;51.438;-2.006;2023-11-21T05:47:14;1.65;;;0.95;;
66667;SDS011;57205;51.438;-2.006;2023-11-21T05:49:40;2.45;;;1.00;;
66667;SDS011;57205;51.438;-2.006;2023-11-21T05:52:05;1.33;;;0.93;;
66667;SDS011;57205;51.438;-2.006;2023-11-21T05:54:31;1.70;;;1.00;;
66667;SDS011;57205;51.438;-2.006;2023-11-21T05:56:57;1.67;;;0.70;;
66667;SDS011;57205;51.438;-2.006;2023-11-21T05:59:22;2.05;;;0.98;;
66667;SDS011;57205;51.438;-2.006;2023-11-21T06:01:48;1.10;;;0.70;;
66667;SDS011;57205;51.438;-2.006;2023-11-21T06:04:13;3.70;;;0.90;;
66667;SDS011;57205;51.438;-2.006;2023-11-21T06:06:39;1.73;;;0.80;;
66667;SDS011;57205;51.438;-2.006;2023-11-21T06:09:05;1.08;;;0.63;;
66667;SDS011;57205;51.438;-2.006;2023-11-21T06:11:37;3.30;;;1.58;;
66667;SDS011;57205;51.438;-2.006;2023-11-21T06:14:02;7.05;;;3.85;;
66667;SDS011;57205;51.438;-2.006;2023-11-21T06:16:28;1.63;;;1.00;;
66667;SDS011;57205;51.438;-2.006;2023-11-21T06:18:54;1.70;;;0.80;;
66667;SDS011;57205;51.438;-2.006;2023-11-21T06:21:19;1.35;;;0.90;;
66667;SDS011;57205;51.438;-2.006;2023-11-21T06:23:44;1.88;;;0.93;;
66667;SDS011;57205;51.438;-2.006;2023-11-21T06:26:10;2.28;;;0.57;;
66667;SDS011;57205;51.438;-2.006;2023-11-21T06:28:36;2.58;;;0.90;;
66667;SDS011;57205;51.438;-2.006;2023-11-21T06:31:01;1.88;;;0.65;;
66667;SDS011;57205;51.438;-2.006;2023-11-21T06:33:33;2.45;;;0.80;;
66667;SDS011;57205;51.438;-2.006;2023-11-21T06:35:59;1.65;;;0.80;;
66667;SDS011;57205;51.438;-2.006;2023-11-21T06:38:28;2.15;;;0.80;;
66667;SDS011;57205;51.438;-2.006;2023-11-21T06:40:55;1.75;;;1.00;;
66667;SDS011;57205;51.438;-2.006;2023-11-21T06:43:22;1.20;;;0.70;;
66667;SDS011;57205;51.438;-2.006;2023-11-21T06:45:47;1.15;;;0.70;;
66667;SDS011;57205;51.438;-2.006;2023-11-21T06:48:13;1.15;;;0.70;;
66667;SDS011;57205;51.438;-2.006;2023-11-21T06:50:38;1.98;;;0.68;;
66667;SDS011;57205;51.438;-2.006;2023-11-21T06:53:04;1.38;;;0.73;;
66667;SDS011;57205;51.438;-2.006;2023-11-21T06:55:32;1.95;;;0.88;;
66667;SDS011;57205;51.438;-2.006;2023-11-21T06:57:57;1.38;;;0.70;;
66667;SDS011;57205;51.438;-2.006;2023-11-21T07:00:23;0.70;;;0.60;;
66667;SDS011;57205;51.438;-2.006;2023-11-21T07:02:48;1.13;;;0.60;;
66667;SDS011;57205;51.438;-2.006;2023-11-21T07:05:14;0.60;;;0.47;;
66667;SDS011;57205;51.438;-2.006;2023-11-21T07:07:40;2.15;;;0.80;;
66667;SDS011;57205;51.438;-2.006;2023-11-21T07:10:06;2.80;;;0.98;;
66667;SDS011;57205;51.438;-2.006;2023-11-21T07:12:33;2.38;;;0.88;;
66667;SDS011;57205;51.438;-2.006;2023-11-21T07:14:59;1.10;;;0.77;;
66667;SDS011;57205;51.438;-2.006;2023-11-21T07:17:27;1.98;;;0.57;;
66667;SDS011;57205;51.438;-2.006;2023-11-21T07:19:53;2.65;;;1.05;;
66667;SDS011;57205;51.438;-2.006;2023-11-21T07:22:20;2.08;;;0.60;;
66667;SDS011;57205;51.438;-2.006;2023-11-21T07:24:49;0.45;;;0.45;;
66667;SDS011;57205;51.438;-2.006;2023-11-21T07:27:15;3.03;;;1.00;;
66667;SDS011;57205;51.438;-2.006;2023-11-21T07:29:41;0.73;;;0.55;;
66667;SDS011;57205;51.438;-2.006;2023-11-21T07:32:06;0.60;;;0.60;;
66667;SDS011;57205;51.438;-2.006;2023-11-21T07:34:34;2.90;;;0.98;;
66667;SDS011;57205;51.438;-2.006;2023-11-21T07:36:59;1.38;;;1.05;;
66667;SDS011;57205;51.438;-2.006;2023-11-21T07:39:25;1.40;;;0.80;;
66667;SDS011;57205;51.438;-2.006;2023-11-21T07:41:50;2.53;;;0.73;;
66667;SDS011;57205;51.438;-2.006;2023-11-21T07:44:17;4.53;;;2.00;;
66667;SDS011;57205;51.438;-2.006;2023-11-21T07:46:43;0.98;;;0.80;;
66667;SDS011;57205;51.438;-2.006;2023-11-21T07:49:09;1.60;;;0.70;;
66667;SDS011;57205;51.438;-2.006;2023-11-21T07:51:35;1.80;;;0.90;;
66667;SDS011;57205;51.438;-2.006;2023-11-21T07:54:00;1.10;;;0.63;;
66667;SDS011;57205;51.438;-2.006;2023-11-21T07:56:25;1.45;;;0.60;;
66667;SDS011;57205;51.438;-2.006;2023-11-21T07:58:51;2.53;;;0.80;;
66667;SDS011;57205;51.438;-2.006;2023-11-21T08:01:17;1.23;;;0.70;;
66667;SDS011;57205;51.438;-2.006;2023-11-21T08:03:42;1.40;;;0.73;;
66667;SDS011;57205;51.438;-2.006;2023-11-21T08:06:09;3.70;;;0.90;;
66667;SDS011;57205;51.438;-2.006;2023-11-21T08:08:34;0.98;;;0.70;;
66667;SDS011;57205;51.438;-2.006;2023-11-21T08:11:00;1.42;;;0.80;;
66667;SDS011;57205;51.438;-2.006;2023-11-21T08:13:26;0.80;;;0.60;;
66667;SDS011;57205;51.438;-2.006;2023-11-21T08:15:57;0.68;;;0.55;;
66667;SDS011;57205;51.438;-2.006;2023-11-21T08:18:27;0.82;;;0.50;;
66667;SDS011;57205;51.438;-2.006;2023-11-21T08:20:53;2.15;;;0.80;;
66667;SDS011;57205;51.438;-2.006;2023-11-21T08:23:20;2.20;;;0.93;;
66667;SDS011;57205;51.438;-2.006;2023-11-21T08:25:45;2.92;;;0.80;;
66667;SDS011;57205;51.438;-2.006;2023-11-21T08:28:12;0.88;;;0.60;;
66667;SDS011;57205;51.438;-2.006;2023-11-21T08:30:41;4.47;;;0.77;;
66667;SDS011;57205;51.438;-2.006;2023-11-21T08:33:06;1.25;;;0.60;;
66667;SDS011;57205;51.438;-2.006;2023-11-21T08:35:33;2.63;;;0.70;;
66667;SDS011;57205;51.438;-2.006;2023-11-21T08:37:59;2.03;;;0.95;;
66667;SDS011;57205;51.438;-2.006;2023-11-21T08:40:25;1.13;;;0.60;;
66667;SDS011;57205;51.438;-2.006;2023-11-21T08:42:50;2.33;;;0.88;;
66667;SDS011;57205;51.438;-2.006;2023-11-21T08:45:17;1.48;;;0.80;;
66667;SDS011;57205;51.438;-2.006;2023-11-21T08:47:43;1.52;;;1.33;;
66667;SDS011;57205;51.438;-2.006;2023-11-21T08:50:09;0.63;;;0.63;;
66667;SDS011;57205;51.438;-2.006;2023-11-21T08:52:37;3.13;;;0.93;;
66667;SDS011;57205;51.438;-2.006;2023-11-21T08:55:06;1.58;;;0.73;;
66667;SDS011;57205;51.438;-2.006;2023-11-21T08:57:37;1.02;;;0.60;;
66667;SDS011;57205;51.438;-2.006;2023-11-21T09:00:04;3.65;;;1.00;;
66667;SDS011;57205;51.438;-2.006;2023-11-21T09:02:43;1.70;;;0.77;;
66667;SDS011;57205;51.438;-2.006;2023-11-21T09:05:09;0.95;;;0.70;;
66667;SDS011;57205;51.438;-2.006;2023-11-21T09:07:39;1.52;;;0.80;;
66667;SDS011;57205;51.438;-2.006;2023-11-21T09:10:11;1.77;;;0.80;;
66667;SDS011;57205;51.438;-2.006;2023-11-21T09:12:36;1.75;;;0.90;;
66667;SDS011;57205;51.438;-2.006;2023-11-21T09:15:03;4.65;;;0.98;;
66667;SDS011;57205;51.438;-2.006;2023-11-21T09:17:30;1.80;;;0.90;;
66667;SDS011;57205;51.438;-2.006;2023-11-21T09:19:56;0.90;;;0.80;;
66667;SDS011;57205;51.438;-2.006;2023-11-21T09:22:22;1.55;;;0.80;;
66667;SDS011;57205;51.438;-2.006;2023-11-21T09:24:49;1.45;;;0.80;;
66667;SDS011;57205;51.438;-2.006;2023-11-21T09:27:15;3.13;;;1.13;;
66667;SDS011;57205;51.438;-2.006;2023-11-21T09:29:42;2.00;;;0.73;;
66667;SDS011;57205;51.438;-2.006;2023-11-21T09:32:07;2.03;;;0.85;;
66667;SDS011;57205;51.438;-2.006;2023-11-21T09:34:42;2.42;;;0.85;;
66667;SDS011;57205;51.438;-2.006;2023-11-21T09:37:07;4.20;;;1.00;;
66667;SDS011;57205;51.438;-2.006;2023-11-21T09:39:33;2.50;;;1.10;;
66667;SDS011;57205;51.438;-2.006;2023-11-21T09:42:08;3.35;;;0.93;;
66667;SDS011;57205;51.438;-2.006;2023-11-21T09:44:40;1.33;;;0.80;;
66667;SDS011;57205;51.438;-2.006;2023-11-21T09:47:09;1.20;;;0.75;;
66667;SDS011;57205;51.438;-2.006;2023-11-21T09:49:39;2.03;;;0.98;;
66667;SDS011;57205;51.438;-2.006;2023-11-21T09:52:05;1.60;;;0.90;;
66667;SDS011;57205;51.438;-2.006;2023-11-21T09:54:34;4.45;;;1.83;;
66667;SDS011;57205;51.438;-2.006;2023-11-21T09:57:00;2.55;;;1.00;;
66667;SDS011;57205;51.438;-2.006;2023-11-21T09:59:29;7.05;;;2.90;;
66667;SDS011;57205;51.438;-2.006;2023-11-21T10:02:00;1.13;;;0.90;;
66667;SDS011;57205;51.438;-2.006;2023-11-21T10:04:27;2.22;;;1.65;;
66667;SDS011;57205;51.438;-2.006;2023-11-21T10:06:53;1.92;;;1.00;;
66667;SDS011;57205;51.438;-2.006;2023-11-21T10:09:19;6.85;;;1.10;;
66667;SDS011;57205;51.438;-2.006;2023-11-21T10:11:46;3.10;;;1.23;;
66667;SDS011;57205;51.438;-2.006;2023-11-21T10:14:14;3.40;;;1.17;;
66667;SDS011;57205;51.438;-2.006;2023-11-21T10:16:43;2.85;;;1.13;;
66667;SDS011;57205;51.438;-2.006;2023-11-21T10:19:09;1.30;;;1.00;;
66667;SDS011;57205;51.438;-2.006;2023-11-21T10:21:35;4.13;;;1.50;;
66667;SDS011;57205;51.438;-2.006;2023-11-21T10:24:03;1.55;;;0.90;;
66667;SDS011;57205;51.438;-2.006;2023-11-21T10:26:28;2.50;;;1.10;;
66667;SDS011;57205;51.438;-2.006;2023-11-21T10:29:00;2.28;;;1.13;;
66667;SDS011;57205;51.438;-2.006;2023-11-21T10:31:29;1.67;;;0.90;;
66667;SDS011;57205;51.438;-2.006;2023-11-21T10:33:57;4.25;;;1.52;;
66667;SDS011;57205;51.438;-2.006;2023-11-21T10:36:38;1.80;;;1.05;;
66667;SDS011;57205;51.438;-2.006;2023-11-21T10:39:06;2.53;;;1.17;;
66667;SDS011;57205;51.438;-2.006;2023-11-21T10:41:32;2.72;;;1.17;;
66667;SDS011;57205;51.438;-2.006;2023-11-21T10:43:58;2.10;;;1.20;;
66667;SDS011;57205;51.438;-2.006;2023-11-21T10:46:23;1.80;;;0.90;;
66667;SDS011;57205;51.438;-2.006;2023-11-21T10:48:54;2.35;;;1.10;;
66667;SDS011;57205;51.438;-2.006;2023-11-21T10:51:21;2.95;;;1.33;;
66667;SDS011;57205;51.438;-2.006;2023-11-21T10:53:47;1.75;;;0.90;;
66667;SDS011;57205;51.438;-2.006;2023-11-21T10:56:15;3.03;;;0.95;;
66667;SDS011;57205;51.438;-2.006;2023-11-21T10:58:48;3.67;;;1.13;;
66667;SDS011;57205;51.438;-2.006;2023-11-21T11:01:16;1.52;;;1.08;;
66667;SDS011;57205;51.438;-2.006;2023-11-21T11:03:43;1.15;;;0.90;;
66667;SDS011;57205;51.438;-2.006;2023-11-21T11:06:10;3.72;;;1.25;;
66667;SDS011;57205;51.438;-2.006;2023-11-21T11:08:37;2.10;;;1.00;;
66667;SDS011;57205;51.438;-2.006;2023-11-21T11:11:05;2.60;;;1.00;;
66667;SDS011;57205;51.438;-2.006;2023-11-21T11:13:31;2.75;;;0.98;;
66667;SDS011;57205;51.438;-2.006;2023-11-21T11:16:00;2.83;;;1.10;;
66667;SDS011;57205;51.438;-2.006;2023-11-21T11:18:32;1.15;;;0.90;;
66667;SDS011;57205;51.438;-2.006;2023-11-21T11:21:06;1.63;;;0.90;;
66667;SDS011;57205;51.438;-2.006;2023-11-21T11:31:26;3.50;;;1.10;;
66667;SDS011;57205;51.438;-2.006;2023-11-21T11:34:19;2.60;;;1.17;;
66667;SDS011;57205;51.438;-2.006;2023-11-21T11:36:56;4.30;;;1.02;;
66667;SDS011;57205;51.438;-2.006;2023-11-21T11:39:37;2.05;;;1.10;;
66667;SDS011;57205;51.438;-2.006;2023-11-21T11:42:07;1.98;;;0.90;;
66667;SDS011;57205;51.438;-2.006;2023-11-21T11:47:29;4.97;;;1.50;;
66667;SDS011;57205;51.438;-2.006;2023-11-21T11:52:33;3.20;;;1.05;;
66667;SDS011;57205;51.438;-2.006;2023-11-21T11:55:07;4.20;;;1.30;;
66667;SDS011;57205;51.438;-2.006;2023-11-21T11:57:44;3.38;;;1.40;;
66667;SDS011;57205;51.438;-2.006;2023-11-21T12:00:15;2.67;;;1.30;;
66667;SDS011;57205;51.438;-2.006;2023-11-21T12:02:54;3.15;;;1.17;;
66667;SDS011;57205;51.438;-2.006;2023-11-21T12:05:25;4.05;;;1.15;;
66667;SDS011;57205;51.438;-2.006;2023-11-21T12:07:56;1.85;;;1.00;;
66667;SDS011;57205;51.438;-2.006;2023-11-21T12:10:33;3.30;;;1.30;;
66667;SDS011;57205;51.438;-2.006;2023-11-21T12:13:01;2.92;;;1.23;;
66667;SDS011;57205;51.438;-2.006;2023-11-21T12:15:28;5.10;;;1.60;;
66667;SDS011;57205;51.438;-2.006;2023-11-21T12:17:55;1.90;;;1.00;;
66667;SDS011;57205;51.438;-2.006;2023-11-21T12:20:22;2.72;;;1.40;;
66667;SDS011;57205;51.438;-2.006;2023-11-21T12:22:52;2.05;;;1.00;;
66667;SDS011;57205;51.438;-2.006;2023-11-21T12:25:27;2.35;;;1.15;;
66667;SDS011;57205;51.438;-2.006;2023-11-21T12:27:56;2.50;;;1.00;;
66667;SDS011;57205;51.438;-2.006;2023-11-21T12:30:23;2.97;;;1.10;;
66667;SDS011;57205;51.438;-2.006;2023-11-21T12:32:53;1.77;;;1.15;;
66667;SDS011;57205;51.438;-2.006;2023-11-21T12:35:21;2.60;;;1.10;;
66667;SDS011;57205;51.438;-2.006;2023-11-21T12:37:49;1.77;;;1.00;;
66667;SDS011;57205;51.438;-2.006;2023-11-21T12:40:16;4.32;;;0.95;;
66667;SDS011;57205;51.438;-2.006;2023-11-21T12:42:42;2.55;;;1.10;;
66667;SDS011;57205;51.438;-2.006;2023-11-21T12:45:10;2.92;;;1.20;;
66667;SDS011;57205;51.438;-2.006;2023-11-21T12:47:40;4.72;;;1.30;;
66667;SDS011;57205;51.438;-2.006;2023-11-21T12:50:07;2.50;;;1.60;;
66667;SDS011;57205;51.438;-2.006;2023-11-21T12:52:39;4.38;;;1.30;;
66667;SDS011;57205;51.438;-2.006;2023-11-21T12:55:06;3.55;;;1.25;;
66667;SDS011;57205;51.438;-2.006;2023-11-21T12:57:33;3.22;;;1.27;;
66667;SDS011;57205;51.438;-2.006;2023-11-21T12:59:59;3.10;;;1.23;;
66667;SDS011;57205;51.438;-2.006;2023-11-21T13:02:30;3.75;;;1.35;;
66667;SDS011;57205;51.438;-2.006;2023-11-21T13:04:56;3.72;;;1.40;;
66667;SDS011;57205;51.438;-2.006;2023-11-21T13:07:23;3.50;;;1.33;;
66667;SDS011;57205;51.438;-2.006;2023-11-21T13:09:51;3.25;;;1.30;;
66667;SDS011;57205;51.438;-2.006;2023-11-21T13:12:23;3.10;;;1.60;;
66667;SDS011;57205;51.438;-2.006;2023-11-21T13:14:49;2.58;;;1.40;;
66667;SDS011;57205;51.438;-2.006;2023-11-21T13:17:15;1.90;;;0.95;;
66667;SDS011;57205;51.438;-2.006;2023-11-21T13:19:40;1.98;;;0.90;;
66667;SDS011;57205;51.438;-2.006;2023-11-21T13:22:07;3.08;;;1.15;;
66667;SDS011;57205;51.438;-2.006;2023-11-21T13:24:36;3.10;;;1.50;;
66667;SDS011;57205;51.438;-2.006;2023-11-21T13:27:02;2.78;;;1.13;;
66667;SDS011;57205;51.438;-2.006;2023-11-21T13:29:27;3.88;;;1.30;;
66667;SDS011;57205;51.438;-2.006;2023-11-21T13:31:55;4.10;;;1.73;;
66667;SDS011;57205;51.438;-2.006;2023-11-21T13:34:20;4.20;;;1.38;;
66667;SDS011;57205;51.438;-2.006;2023-11-21T13:36:47;5.45;;;1.52;;
66667;SDS011;57205;51.438;-2.006;2023-11-21T13:39:13;4.20;;;1.63;;
66667;SDS011;57205;51.438;-2.006;2023-11-21T13:41:40;4.28;;;1.50;;
66667;SDS011;57205;51.438;-2.006;2023-11-21T13:44:07;2.55;;;1.20;;
66667;SDS011;57205;51.438;-2.006;2023-11-21T13:46:51;4.50;;;1.40;;
66667;SDS011;57205;51.438;-2.006;2023-11-21T13:49:17;3.97;;;1.52;;
66667;SDS011;57205;51.438;-2.006;2023-11-21T13:51:43;4.97;;;1.42;;
66667;SDS011;57205;51.438;-2.006;2023-11-21T13:54:14;2.05;;;1.20;;
66667;SDS011;57205;51.438;-2.006;2023-11-21T13:56:41;3.35;;;1.20;;
66667;SDS011;57205;51.438;-2.006;2023-11-21T13:59:09;5.05;;;1.50;;
66667;SDS011;57205;51.438;-2.006;2023-11-21T14:01:45;2.75;;;1.17;;
66667;SDS011;57205;51.438;-2.006;2023-11-21T14:04:20;3.67;;;1.10;;
66667;SDS011;57205;51.438;-2.006;2023-11-21T14:07:00;1.83;;;0.90;;
66667;SDS011;57205;51.438;-2.006;2023-11-21T14:09:35;3.03;;;1.17;;
66667;SDS011;57205;51.438;-2.006;2023-11-21T14:12:08;2.75;;;1.73;;
66667;SDS011;57205;51.438;-2.006;2023-11-21T14:14:37;4.60;;;1.20;;
66667;SDS011;57205;51.438;-2.006;2023-11-21T14:17:05;2.80;;;1.20;;
66667;SDS011;57205;51.438;-2.006;2023-11-21T14:19:32;5.22;;;1.35;;
66667;SDS011;57205;51.438;-2.006;2023-11-21T14:21:59;4.07;;;1.20;;
66667;SDS011;57205;51.438;-2.006;2023-11-21T14:24:25;1.45;;;0.80;;
66667;SDS011;57205;51.438;-2.006;2023-11-21T14:26:51;3.20;;;1.00;;
66667;SDS011;57205;51.438;-2.006;2023-11-21T14:29:17;3.47;;;1.17;;
66667;SDS011;57205;51.438;-2.006;2023-11-21T14:31:48;6.72;;;1.20;;
66667;SDS011;57205;51.438;-2.006;2023-11-21T14:34:15;3.10;;;1.10;;
66667;SDS011;57205;51.438;-2.006;2023-11-21T14:36:40;4.43;;;1.50;;
66667;SDS011;57205;51.438;-2.006;2023-11-21T14:39:08;3.00;;;1.40;;
66667;SDS011;57205;51.438;-2.006;2023-11-21T14:41:41;2.83;;;1.10;;
66667;SDS011;57205;51.438;-2.006;2023-11-21T14:44:07;4.32;;;1.10;;
66667;SDS011;57205;51.438;-2.006;2023-11-21T14:46:37;3.78;;;1.20;;